Terminal Aerodrome Forecast
Issued by NWS Grand Forks, ND

Home | Current Version | Previous Version | Text Only | Print | Product List | Glossary On
Versions: 1 2 3 4 5 6 7 8 9 10 11 12 13 14 15 16
000
FTUS43 KFGF 190500
TAFFAR
TAF
KFAR 190520Z 1906/2006 17018KT P6SM BKN250
      TEMPO 1907/1909 -SHRA BKN080
     FM191400 19015KT P6SM OVC015
     FM191800 21013KT P6SM BKN040
     FM192100 24014KT P6SM BKN080=

USA.gov is the U.S. government's official web portal to all federal, state and local government web resources and services.